sensor_id;sensor_type;location;lat;lon;timestamp;pressure;altitude;pressure_sealevel;temperature;humidity
38466;BME280;24244;51.950;5.902;2023-02-24T00:00:10;101521.31;;;4.58;83.91
38466;BME280;24244;51.950;5.902;2023-02-24T00:03:07;101518.91;;;4.55;83.87
38466;BME280;24244;51.950;5.902;2023-02-24T00:05:37;101514.66;;;4.54;83.60
38466;BME280;24244;51.950;5.902;2023-02-24T00:08:05;101520.88;;;4.53;83.63
38466;BME280;24244;51.950;5.902;2023-02-24T00:10:32;101512.50;;;4.48;83.63
38466;BME280;24244;51.950;5.902;2023-02-24T00:13:01;101517.09;;;4.46;83.66
38466;BME280;24244;51.950;5.902;2023-02-24T00:19:21;101513.94;;;4.31;83.33
38466;BME280;24244;51.950;5.902;2023-02-24T00:21:49;101516.91;;;4.26;83.70
38466;BME280;24244;51.950;5.902;2023-02-24T00:24:17;101511.81;;;4.25;83.74
38466;BME280;24244;51.950;5.902;2023-02-24T00:26:44;101508.47;;;4.23;83.61
38466;BME280;24244;51.950;5.902;2023-02-24T00:29:15;101501.78;;;4.19;83.47
38466;BME280;24244;51.950;5.902;2023-02-24T00:31:44;101496.06;;;4.14;83.73
38466;BME280;24244;51.950;5.902;2023-02-24T00:34:13;101492.84;;;4.10;83.77
38466;BME280;24244;51.950;5.902;2023-02-24T00:36:40;101488.69;;;4.08;83.56
38466;BME280;24244;51.950;5.902;2023-02-24T00:39:08;101487.28;;;4.04;83.68
38466;BME280;24244;51.950;5.902;2023-02-24T00:41:37;101484.44;;;3.96;83.67
38466;BME280;24244;51.950;5.902;2023-02-24T00:44:07;101487.41;;;3.91;83.52
38466;BME280;24244;51.950;5.902;2023-02-24T00:46:40;101487.81;;;3.86;83.48
38466;BME280;24244;51.950;5.902;2023-02-24T00:49:11;101481.00;;;3.84;83.89
38466;BME280;24244;51.950;5.902;2023-02-24T00:51:40;101486.25;;;3.84;83.82
38466;BME280;24244;51.950;5.902;2023-02-24T00:54:08;101480.41;;;3.80;83.53
38466;BME280;24244;51.950;5.902;2023-02-24T00:56:36;101481.50;;;3.78;83.34
38466;BME280;24244;51.950;5.902;2023-02-24T00:59:03;101468.63;;;3.75;83.43
38466;BME280;24244;51.950;5.902;2023-02-24T01:01:31;101465.16;;;3.74;83.63
38466;BME280;24244;51.950;5.902;2023-02-24T01:04:01;101460.00;;;3.73;83.70
38466;BME280;24244;51.950;5.902;2023-02-24T01:06:38;101459.28;;;3.71;83.52
38466;BME280;24244;51.950;5.902;2023-02-24T01:09:08;101456.19;;;3.66;83.24
38466;BME280;24244;51.950;5.902;2023-02-24T01:11:37;101458.25;;;3.62;83.32
38466;BME280;24244;51.950;5.902;2023-02-24T01:14:25;101455.75;;;3.61;83.44
38466;BME280;24244;51.950;5.902;2023-02-24T01:16:53;101458.50;;;3.59;83.92
38466;BME280;24244;51.950;5.902;2023-02-24T01:19:23;101444.53;;;3.59;83.46
38466;BME280;24244;51.950;5.902;2023-02-24T01:21:50;101449.91;;;3.57;83.59
38466;BME280;24244;51.950;5.902;2023-02-24T01:24:21;101445.59;;;3.56;83.61
38466;BME280;24244;51.950;5.902;2023-02-24T01:26:47;101434.25;;;3.55;83.51
38466;BME280;24244;51.950;5.902;2023-02-24T01:29:17;101435.91;;;3.57;83.44
38466;BME280;24244;51.950;5.902;2023-02-24T01:31:44;101431.75;;;3.54;83.35
38466;BME280;24244;51.950;5.902;2023-02-24T01:34:15;101425.06;;;3.50;83.43
38466;BME280;24244;51.950;5.902;2023-02-24T01:36:44;101426.16;;;3.47;83.73
38466;BME280;24244;51.950;5.902;2023-02-24T01:39:11;101414.94;;;3.45;83.72
38466;BME280;24244;51.950;5.902;2023-02-24T01:41:40;101418.41;;;3.46;83.31
38466;BME280;24244;51.950;5.902;2023-02-24T01:47:09;101403.00;;;3.41;83.66
38466;BME280;24244;51.950;5.902;2023-02-24T01:49:38;101405.63;;;3.41;83.71
38466;BME280;24244;51.950;5.902;2023-02-24T01:52:09;101403.81;;;3.42;83.78
38466;BME280;24244;51.950;5.902;2023-02-24T01:54:41;101396.31;;;3.37;83.45
38466;BME280;24244;51.950;5.902;2023-02-24T02:04:08;101370.09;;;3.26;83.89
38466;BME280;24244;51.950;5.902;2023-02-24T02:06:37;101358.88;;;3.24;83.42
38466;BME280;24244;51.950;5.902;2023-02-24T02:09:06;101349.19;;;3.25;83.68
38466;BME280;24244;51.950;5.902;2023-02-24T02:11:33;101355.41;;;3.24;83.39
38466;BME280;24244;51.950;5.902;2023-02-24T02:14:00;101344.78;;;3.25;83.36
38466;BME280;24244;51.950;5.902;2023-02-24T02:16:36;101344.91;;;3.24;83.38
38466;BME280;24244;51.950;5.902;2023-02-24T02:19:29;101342.50;;;3.21;83.21
38466;BME280;24244;51.950;5.902;2023-02-24T02:22:24;101341.00;;;3.18;83.61
38466;BME280;24244;51.950;5.902;2023-02-24T02:24:56;101334.28;;;3.14;83.28
38466;BME280;24244;51.950;5.902;2023-02-24T02:27:45;101339.81;;;3.11;83.23
38466;BME280;24244;51.950;5.902;2023-02-24T02:30:56;101332.16;;;3.08;83.05
38466;BME280;24244;51.950;5.902;2023-02-24T02:33:52;101337.81;;;3.03;83.60
38466;BME280;24244;51.950;5.902;2023-02-24T02:36:29;101339.72;;;3.01;83.69
38466;BME280;24244;51.950;5.902;2023-02-24T02:39:03;101327.53;;;3.00;83.57
38466;BME280;24244;51.950;5.902;2023-02-24T02:41:43;101324.34;;;2.97;83.39
38466;BME280;24244;51.950;5.902;2023-02-24T02:44:17;101314.78;;;2.96;83.39
38466;BME280;24244;51.950;5.902;2023-02-24T02:46:49;101311.44;;;2.94;83.07
38466;BME280;24244;51.950;5.902;2023-02-24T02:49:23;101305.63;;;2.90;83.76
38466;BME280;24244;51.950;5.902;2023-02-24T02:55:48;101292.16;;;2.84;83.10
38466;BME280;24244;51.950;5.902;2023-02-24T02:58:22;101292.16;;;2.84;83.44
38466;BME280;24244;51.950;5.902;2023-02-24T03:00:54;101287.84;;;2.83;83.63
38466;BME280;24244;51.950;5.902;2023-02-24T03:03:30;101286.91;;;2.84;83.48
38466;BME280;24244;51.950;5.902;2023-02-24T03:06:02;101277.34;;;2.83;83.63
38466;BME280;24244;51.950;5.902;2023-02-24T03:08:34;101277.34;;;2.83;83.34
38466;BME280;24244;51.950;5.902;2023-02-24T03:11:06;101277.34;;;2.83;83.49
38466;BME280;24244;51.950;5.902;2023-02-24T03:17:19;101265.41;;;2.79;83.38
38466;BME280;24244;51.950;5.902;2023-02-24T03:19:49;101264.56;;;2.78;83.40
38466;BME280;24244;51.950;5.902;2023-02-24T03:22:32;101264.00;;;2.74;83.66
38466;BME280;24244;51.950;5.902;2023-02-24T03:25:01;101265.06;;;2.72;83.44
38466;BME280;24244;51.950;5.902;2023-02-24T03:27:33;101257.31;;;2.70;83.24
38466;BME280;24244;51.950;5.902;2023-02-24T03:30:06;101254.84;;;2.69;83.03
38466;BME280;24244;51.950;5.902;2023-02-24T03:32:39;101251.50;;;2.67;83.37
38466;BME280;24244;51.950;5.902;2023-02-24T03:35:19;101255.19;;;2.64;83.68
38466;BME280;24244;51.950;5.902;2023-02-24T03:37:48;101246.75;;;2.61;83.61
38466;BME280;24244;51.950;5.902;2023-02-24T03:40:16;101242.56;;;2.58;83.32
38466;BME280;24244;51.950;5.902;2023-02-24T03:42:46;101248.06;;;2.55;83.57
38466;BME280;24244;51.950;5.902;2023-02-24T03:45:14;101252.50;;;2.55;83.41
38466;BME280;24244;51.950;5.902;2023-02-24T03:47:42;101242.84;;;2.55;83.88
38466;BME280;24244;51.950;5.902;2023-02-24T03:50:12;101243.91;;;2.53;83.16
38466;BME280;24244;51.950;5.902;2023-02-24T03:52:42;101239.59;;;2.52;83.28
38466;BME280;24244;51.950;5.902;2023-02-24T03:55:23;101234.47;;;2.50;83.40
38466;BME280;24244;51.950;5.902;2023-02-24T03:58:02;101233.63;;;2.50;83.42
38466;BME280;24244;51.950;5.902;2023-02-24T04:00:37;101231.97;;;2.49;83.74
38466;BME280;24244;51.950;5.902;2023-02-24T04:03:19;101225.91;;;2.48;83.71
38466;BME280;24244;51.950;5.902;2023-02-24T04:05:58;101225.06;;;2.48;83.61
38466;BME280;24244;51.950;5.902;2023-02-24T04:08:29;101226.97;;;2.46;83.66
38466;BME280;24244;51.950;5.902;2023-02-24T04:11:11;101222.56;;;2.46;83.23
38466;BME280;24244;51.950;5.902;2023-02-24T04:13:44;101230.44;;;2.46;83.22
38466;BME280;24244;51.950;5.902;2023-02-24T04:16:15;101226.25;;;2.44;83.50
38466;BME280;24244;51.950;5.902;2023-02-24T04:18:56;101220.19;;;2.43;83.36
38466;BME280;24244;51.950;5.902;2023-02-24T04:21:26;101214.81;;;2.45;83.38
38466;BME280;24244;51.950;5.902;2023-02-24T04:23:54;101218.28;;;2.45;83.54
38466;BME280;24244;51.950;5.902;2023-02-24T04:26:24;101218.16;;;2.47;83.61
38466;BME280;24244;51.950;5.902;2023-02-24T04:28:53;101213.75;;;2.47;83.72
38466;BME280;24244;51.950;5.902;2023-02-24T04:31:21;101210.16;;;2.48;83.26
38466;BME280;24244;51.950;5.902;2023-02-24T04:33:51;101204.78;;;2.50;83.64
38466;BME280;24244;51.950;5.902;2023-02-24T04:36:20;101198.47;;;2.52;83.71
38466;BME280;24244;51.950;5.902;2023-02-24T04:38:47;101189.50;;;2.55;83.46
38466;BME280;24244;51.950;5.902;2023-02-24T04:41:14;101185.09;;;2.55;83.74
38466;BME280;24244;51.950;5.902;2023-02-24T04:43:49;101196.28;;;2.57;83.82
38466;BME280;24244;51.950;5.902;2023-02-24T04:46:16;101184.84;;;2.58;83.84
38466;BME280;24244;51.950;5.902;2023-02-24T04:48:44;101176.84;;;2.60;83.56
38466;BME280;24244;51.950;5.902;2023-02-24T04:51:11;101174.94;;;2.62;83.86
38466;BME280;24244;51.950;5.902;2023-02-24T04:53:39;101168.75;;;2.63;83.52
38466;BME280;24244;51.950;5.902;2023-02-24T04:56:06;101162.50;;;2.64;83.86
38466;BME280;24244;51.950;5.902;2023-02-24T04:58:36;101162.28;;;2.67;83.73
38466;BME280;24244;51.950;5.902;2023-02-24T05:01:07;101157.75;;;2.69;84.09
38466;BME280;24244;51.950;5.902;2023-02-24T05:03:36;101161.88;;;2.71;83.66
38466;BME280;24244;51.950;5.902;2023-02-24T05:06:04;101157.34;;;2.73;84.18
38466;BME280;24244;51.950;5.902;2023-02-24T05:08:32;101144.09;;;2.75;84.08
38466;BME280;24244;51.950;5.902;2023-02-24T05:10:59;101135.28;;;2.76;83.78
38466;BME280;24244;51.950;5.902;2023-02-24T05:13:30;101140.38;;;2.78;83.66
38466;BME280;24244;51.950;5.902;2023-02-24T05:15:59;101139.41;;;2.79;84.14
38466;BME280;24244;51.950;5.902;2023-02-24T05:18:30;101130.47;;;2.81;84.16
38466;BME280;24244;51.950;5.902;2023-02-24T05:21:04;101128.56;;;2.83;84.15
38466;BME280;24244;51.950;5.902;2023-02-24T05:23:51;101120.53;;;2.85;83.95
38466;BME280;24244;51.950;5.902;2023-02-24T05:26:20;101114.31;;;2.86;83.86
38466;BME280;24244;51.950;5.902;2023-02-24T05:28:48;101116.00;;;2.87;83.90
38466;BME280;24244;51.950;5.902;2023-02-24T05:31:19;101108.00;;;2.88;84.33
38466;BME280;24244;51.950;5.902;2023-02-24T05:33:50;101098.34;;;2.89;84.10
38466;BME280;24244;51.950;5.902;2023-02-24T05:36:20;101091.16;;;2.91;84.31
38466;BME280;24244;51.950;5.902;2023-02-24T05:38:49;101085.91;;;2.91;84.05
38466;BME280;24244;51.950;5.902;2023-02-24T05:41:23;101078.03;;;2.91;84.29
38466;BME280;24244;51.950;5.902;2023-02-24T05:43:53;101067.53;;;2.91;84.47
38466;BME280;24244;51.950;5.902;2023-02-24T05:46:22;101070.84;;;2.93;84.40
38466;BME280;24244;51.950;5.902;2023-02-24T05:48:56;101060.94;;;2.96;84.41
38466;BME280;24244;51.950;5.902;2023-02-24T05:51:23;101053.88;;;2.97;84.01
38466;BME280;24244;51.950;5.902;2023-02-24T05:53:50;101051.94;;;2.99;84.20
38466;BME280;24244;51.950;5.902;2023-02-24T05:56:21;101050.03;;;3.01;84.49
38466;BME280;24244;51.950;5.902;2023-02-24T05:58:49;101045.50;;;3.03;84.35
38466;BME280;24244;51.950;5.902;2023-02-24T06:01:16;101034.03;;;3.04;84.40
38466;BME280;24244;51.950;5.902;2023-02-24T06:03:47;101040.94;;;3.05;84.29
38466;BME280;24244;51.950;5.902;2023-02-24T06:06:16;101038.16;;;3.06;84.12
38466;BME280;24244;51.950;5.902;2023-02-24T06:08:43;101032.91;;;3.06;84.33
38466;BME280;24244;51.950;5.902;2023-02-24T06:11:17;101024.91;;;3.08;84.19
38466;BME280;24244;51.950;5.902;2023-02-24T06:13:45;101030.88;;;3.10;84.50
38466;BME280;24244;51.950;5.902;2023-02-24T06:16:14;101019.41;;;3.11;84.42
38466;BME280;24244;51.950;5.902;2023-02-24T06:18:41;101011.41;;;3.12;84.45
38466;BME280;24244;51.950;5.902;2023-02-24T06:21:08;101004.19;;;3.14;84.56
38466;BME280;24244;51.950;5.902;2023-02-24T06:23:39;101005.88;;;3.15;84.45
38466;BME280;24244;51.950;5.902;2023-02-24T06:26:07;101006.56;;;3.18;84.62
38466;BME280;24244;51.950;5.902;2023-02-24T06:28:45;101004.78;;;3.18;84.56
38466;BME280;24244;51.950;5.902;2023-02-24T06:31:13;101007.28;;;3.20;84.51
38466;BME280;24244;51.950;5.902;2023-02-24T06:33:40;101004.50;;;3.21;84.29
38466;BME280;24244;51.950;5.902;2023-02-24T06:36:07;100998.28;;;3.22;84.34
38466;BME280;24244;51.950;5.902;2023-02-24T06:38:35;100995.41;;;3.25;84.59
38466;BME280;24244;51.950;5.902;2023-02-24T06:41:03;100990.03;;;3.27;84.27
38466;BME280;24244;51.950;5.902;2023-02-24T06:43:37;100988.06;;;3.29;84.46
38466;BME280;24244;51.950;5.902;2023-02-24T06:46:05;100981.88;;;3.30;84.68
38466;BME280;24244;51.950;5.902;2023-02-24T06:48:32;100980.78;;;3.32;84.46
38466;BME280;24244;51.950;5.902;2023-02-24T06:51:03;100982.28;;;3.35;84.43
38466;BME280;24244;51.950;5.902;2023-02-24T06:53:30;100977.88;;;3.35;84.56
38466;BME280;24244;51.950;5.902;2023-02-24T06:56:05;100967.22;;;3.37;84.48
38466;BME280;24244;51.950;5.902;2023-02-24T06:58:41;100971.53;;;3.38;84.19
38466;BME280;24244;51.950;5.902;2023-02-24T07:01:10;100963.38;;;3.41;84.59
38466;BME280;24244;51.950;5.902;2023-02-24T07:03:39;100965.84;;;3.42;84.35
38466;BME280;24244;51.950;5.902;2023-02-24T07:06:13;100956.03;;;3.44;84.27
38466;BME280;24244;51.950;5.902;2023-02-24T07:08:56;100963.94;;;3.44;84.58
38466;BME280;24244;51.950;5.902;2023-02-24T07:11:26;100961.16;;;3.46;84.44
38466;BME280;24244;51.950;5.902;2023-02-24T07:13:53;100954.00;;;3.48;84.53
38466;BME280;24244;51.950;5.902;2023-02-24T07:16:23;100939.72;;;3.50;84.64
38466;BME280;24244;51.950;5.902;2023-02-24T07:18:53;100947.34;;;3.53;84.46
38466;BME280;24244;51.950;5.902;2023-02-24T07:21:22;100948.03;;;3.55;84.47
38466;BME280;24244;51.950;5.902;2023-02-24T07:23:50;100944.31;;;3.58;84.25
38466;BME280;24244;51.950;5.902;2023-02-24T07:26:26;100930.06;;;3.61;84.11
38466;BME280;24244;51.950;5.902;2023-02-24T07:28:54;100930.75;;;3.63;84.32
38466;BME280;24244;51.950;5.902;2023-02-24T07:31:23;100934.06;;;3.65;84.13
38466;BME280;24244;51.950;5.902;2023-02-24T07:33:52;100924.13;;;3.68;84.51
38466;BME280;24244;51.950;5.902;2023-02-24T07:36:21;100924.66;;;3.72;84.45
38466;BME280;24244;51.950;5.902;2023-02-24T07:38:50;100920.13;;;3.74;84.26
38466;BME280;24244;51.950;5.902;2023-02-24T07:41:19;100916.38;;;3.76;84.21
38466;BME280;24244;51.950;5.902;2023-02-24T07:43:50;100921.34;;;3.79;84.34
38466;BME280;24244;51.950;5.902;2023-02-24T07:46:19;100926.47;;;3.81;84.22
38466;BME280;24244;51.950;5.902;2023-02-24T07:48:46;100923.56;;;3.84;83.90
38466;BME280;24244;51.950;5.902;2023-02-24T07:51:14;100916.38;;;3.86;84.14
38466;BME280;24244;51.950;5.902;2023-02-24T07:53:42;100910.84;;;3.89;84.31
38466;BME280;24244;51.950;5.902;2023-02-24T07:56:11;100912.22;;;3.93;84.20
38466;BME280;24244;51.950;5.902;2023-02-24T07:58:43;100912.78;;;3.97;84.19
38466;BME280;24244;51.950;5.902;2023-02-24T08:01:12;100903.63;;;4.01;84.11
38466;BME280;24244;51.950;5.902;2023-02-24T08:03:49;100901.56;;;4.04;83.97
38466;BME280;24244;51.950;5.902;2023-02-24T08:06:17;100896.00;;;4.07;83.92
38466;BME280;24244;51.950;5.902;2023-02-24T08:08:54;100896.84;;;4.08;83.96
38466;BME280;24244;51.950;5.902;2023-02-24T08:11:25;100893.09;;;4.10;84.11
38466;BME280;24244;51.950;5.902;2023-02-24T08:13:52;100883.25;;;4.12;83.96
38466;BME280;24244;51.950;5.902;2023-02-24T08:16:20;100893.38;;;4.17;83.99
38466;BME280;24244;51.950;5.902;2023-02-24T08:18:48;100881.72;;;4.19;84.09
38466;BME280;24244;51.950;5.902;2023-02-24T08:21:16;100881.44;;;4.22;84.04
38466;BME280;24244;51.950;5.902;2023-02-24T08:23:46;100883.09;;;4.23;84.23
38466;BME280;24244;51.950;5.902;2023-02-24T08:26:13;100879.19;;;4.27;84.03
38466;BME280;24244;51.950;5.902;2023-02-24T08:28:40;100877.25;;;4.29;84.21
38466;BME280;24244;51.950;5.902;2023-02-24T08:31:07;100860.38;;;4.32;84.04
38466;BME280;24244;51.950;5.902;2023-02-24T08:33:35;100858.28;;;4.36;84.35
38466;BME280;24244;51.950;5.902;2023-02-24T08:36:03;100865.88;;;4.39;84.35
38466;BME280;24244;51.950;5.902;2023-02-24T08:38:31;100855.06;;;4.42;84.57
38466;BME280;24244;51.950;5.902;2023-02-24T08:41:11;100859.22;;;4.44;84.47
38466;BME280;24244;51.950;5.902;2023-02-24T08:43:39;100850.03;;;4.48;84.67
38466;BME280;24244;51.950;5.902;2023-02-24T08:46:15;100839.38;;;4.50;84.40
38466;BME280;24244;51.950;5.902;2023-02-24T08:48:50;100844.38;;;4.53;84.62
38466;BME280;24244;51.950;5.902;2023-02-24T08:51:23;100825.63;;;4.56;84.49
38466;BME280;24244;51.950;5.902;2023-02-24T08:53:55;100840.31;;;4.58;84.50
38466;BME280;24244;51.950;5.902;2023-02-24T08:56:24;100834.59;;;4.63;84.43
38466;BME280;24244;51.950;5.902;2023-02-24T08:58:53;100831.84;;;4.64;84.50
38466;BME280;24244;51.950;5.902;2023-02-24T09:01:26;100822.69;;;4.68;84.70
38466;BME280;24244;51.950;5.902;2023-02-24T09:04:04;100820.56;;;4.72;84.79
38466;BME280;24244;51.950;5.902;2023-02-24T09:06:40;100819.47;;;4.75;84.70
38466;BME280;24244;51.950;5.902;2023-02-24T09:09:11;100819.28;;;4.76;84.54
38466;BME280;24244;51.950;5.902;2023-02-24T09:11:44;100815.41;;;4.80;84.58
38466;BME280;24244;51.950;5.902;2023-02-24T09:14:13;100814.28;;;4.83;84.33
38466;BME280;24244;51.950;5.902;2023-02-24T09:16:54;100803.44;;;4.86;84.61
38466;BME280;24244;51.950;5.902;2023-02-24T09:19:40;100798.03;;;4.87;84.62
38466;BME280;24244;51.950;5.902;2023-02-24T09:22:29;100790.00;;;4.89;84.61
38466;BME280;24244;51.950;5.902;2023-02-24T09:25:03;100791.47;;;4.91;84.76
38466;BME280;24244;51.950;5.902;2023-02-24T09:27:51;100782.75;;;4.91;85.03
38466;BME280;24244;51.950;5.902;2023-02-24T09:30:24;100771.09;;;4.93;84.79
38466;BME280;24244;51.950;5.902;2023-02-24T09:33:06;100776.38;;;4.93;84.85
38466;BME280;24244;51.950;5.902;2023-02-24T09:35:38;100774.41;;;4.95;84.98
38466;BME280;24244;51.950;5.902;2023-02-24T09:38:16;100761.09;;;4.97;84.81
38466;BME280;24244;51.950;5.902;2023-02-24T09:40:44;100758.31;;;4.98;85.09
38466;BME280;24244;51.950;5.902;2023-02-24T09:43:21;100751.91;;;5.01;85.16
38466;BME280;24244;51.950;5.902;2023-02-24T09:45:55;100741.09;;;5.04;85.01
38466;BME280;24244;51.950;5.902;2023-02-24T09:48:34;100731.34;;;5.04;85.08
38466;BME280;24244;51.950;5.902;2023-02-24T09:51:15;100724.13;;;5.06;85.11
38466;BME280;24244;51.950;5.902;2023-02-24T09:53:51;100731.06;;;5.07;85.26
38466;BME280;24244;51.950;5.902;2023-02-24T09:56:27;100727.13;;;5.11;85.43
38466;BME280;24244;51.950;5.902;2023-02-24T09:59:01;100722.41;;;5.15;85.45
38466;BME280;24244;51.950;5.902;2023-02-24T10:01:43;100719.47;;;5.18;85.38
38466;BME280;24244;51.950;5.902;2023-02-24T10:04:24;100711.94;;;5.23;85.53
38466;BME280;24244;51.950;5.902;2023-02-24T10:07:03;100712.63;;;5.25;85.38
38466;BME280;24244;51.950;5.902;2023-02-24T10:09:34;100709.66;;;5.28;85.33
38466;BME280;24244;51.950;5.902;2023-02-24T10:12:06;100704.25;;;5.30;85.29
38466;BME280;24244;51.950;5.902;2023-02-24T10:14:45;100701.13;;;5.34;85.23
38466;BME280;24244;51.950;5.902;2023-02-24T10:17:19;100695.72;;;5.36;85.23
38466;BME280;24244;51.950;5.902;2023-02-24T10:19:49;100689.47;;;5.37;85.23
38466;BME280;24244;51.950;5.902;2023-02-24T10:22:29;100692.94;;;5.37;85.20
38466;BME280;24244;51.950;5.902;2023-02-24T10:25:09;100689.31;;;5.38;85.29
38466;BME280;24244;51.950;5.902;2023-02-24T10:27:54;100682.06;;;5.40;85.25
38466;BME280;24244;51.950;5.902;2023-02-24T10:30:36;100687.19;;;5.42;85.33
38466;BME280;24244;51.950;5.902;2023-02-24T10:33:26;100674.69;;;5.44;85.50
38466;BME280;24244;51.950;5.902;2023-02-24T10:36:04;100677.69;;;5.49;85.27
38466;BME280;24244;51.950;5.902;2023-02-24T10:38:37;100674.06;;;5.50;85.38
38466;BME280;24244;51.950;5.902;2023-02-24T10:41:08;100678.22;;;5.53;85.33
38466;BME280;24244;51.950;5.902;2023-02-24T10:43:38;100673.75;;;5.53;85.51
38466;BME280;24244;51.950;5.902;2023-02-24T10:46:21;100679.69;;;5.55;85.76
38466;BME280;24244;51.950;5.902;2023-02-24T10:49:09;100676.06;;;5.56;85.56
38466;BME280;24244;51.950;5.902;2023-02-24T10:51:47;100673.97;;;5.60;85.67
38466;BME280;24244;51.950;5.902;2023-02-24T10:54:22;100667.72;;;5.61;85.67
38466;BME280;24244;51.950;5.902;2023-02-24T10:57:20;100672.50;;;5.65;85.96
38466;BME280;24244;51.950;5.902;2023-02-24T11:00:15;100660.97;;;5.66;85.58
38466;BME280;24244;51.950;5.902;2023-02-24T11:02:47;100657.38;;;5.67;85.76
38466;BME280;24244;51.950;5.902;2023-02-24T11:05:23;100647.31;;;5.71;85.87
38466;BME280;24244;51.950;5.902;2023-02-24T11:08:16;100647.00;;;5.74;85.83
38466;BME280;24244;51.950;5.902;2023-02-24T11:11:14;100651.13;;;5.76;85.69
38466;BME280;24244;51.950;5.902;2023-02-24T11:13:53;100642.22;;;5.77;85.87
38466;BME280;24244;51.950;5.902;2023-02-24T11:16:46;100635.00;;;5.79;85.93
38466;BME280;24244;51.950;5.902;2023-02-24T11:19:38;100620.97;;;5.79;85.94
38466;BME280;24244;51.950;5.902;2023-02-24T11:22:10;100620.69;;;5.82;85.89
38466;BME280;24244;51.950;5.902;2023-02-24T11:24:42;100619.53;;;5.84;86.00
38466;BME280;24244;51.950;5.902;2023-02-24T11:27:10;100599.09;;;5.86;86.17
38466;BME280;24244;51.950;5.902;2023-02-24T11:29:52;100604.09;;;5.89;86.47
38466;BME280;24244;51.950;5.902;2023-02-24T11:32:38;100602.09;;;5.92;86.62
38466;BME280;24244;51.950;5.902;2023-02-24T11:35:14;100599.31;;;5.93;86.69
38466;BME280;24244;51.950;5.902;2023-02-24T11:37:54;100591.25;;;5.95;86.73
38466;BME280;24244;51.950;5.902;2023-02-24T11:40:25;100590.06;;;5.97;86.68
38466;BME280;24244;51.950;5.902;2023-02-24T11:42:57;100579.38;;;5.99;86.63
38466;BME280;24244;51.950;5.902;2023-02-24T11:45:31;100578.22;;;6.01;86.88
38466;BME280;24244;51.950;5.902;2023-02-24T11:48:02;100575.25;;;6.04;87.03
38466;BME280;24244;51.950;5.902;2023-02-24T11:50:37;100572.31;;;6.07;86.80
38466;BME280;24244;51.950;5.902;2023-02-24T11:53:14;100568.34;;;6.11;86.94
38466;BME280;24244;51.950;5.902;2023-02-24T11:55:45;100562.91;;;6.13;87.09
38466;BME280;24244;51.950;5.902;2023-02-24T11:58:22;100565.25;;;6.16;87.07
38466;BME280;24244;51.950;5.902;2023-02-24T12:00:54;100556.16;;;6.18;87.08
38466;BME280;24244;51.950;5.902;2023-02-24T12:03:29;100543.63;;;6.20;87.32
38466;BME280;24244;51.950;5.902;2023-02-24T12:06:08;100543.47;;;6.22;87.17
38466;BME280;24244;51.950;5.902;2023-02-24T12:08:40;100547.59;;;6.24;87.20
38466;BME280;24244;51.950;5.902;2023-02-24T12:11:16;100535.88;;;6.27;87.32
38466;BME280;24244;51.950;5.902;2023-02-24T12:13:53;100526.66;;;6.31;86.94
38466;BME280;24244;51.950;5.902;2023-02-24T12:16:24;100528.94;;;6.34;87.00
38466;BME280;24244;51.950;5.902;2023-02-24T12:19:02;100534.75;;;6.38;87.39
38466;BME280;24244;51.950;5.902;2023-02-24T12:21:35;100524.03;;;6.39;87.47
38466;BME280;24244;51.950;5.902;2023-02-24T12:24:09;100516.44;;;6.44;87.27
38466;BME280;24244;51.950;5.902;2023-02-24T12:26:48;100518.91;;;6.46;87.45
38466;BME280;24244;51.950;5.902;2023-02-24T12:29:44;100521.19;;;6.49;87.38
38466;BME280;24244;51.950;5.902;2023-02-24T12:32:21;100518.09;;;6.53;87.40
38466;BME280;24244;51.950;5.902;2023-02-24T12:34:59;100507.34;;;6.55;87.24
38466;BME280;24244;51.950;5.902;2023-02-24T12:40:39;100506.84;;;6.59;87.20
38466;BME280;24244;51.950;5.902;2023-02-24T12:43:20;100505.69;;;6.62;87.58
38466;BME280;24244;51.950;5.902;2023-02-24T12:45:59;100503.53;;;6.65;87.52
38466;BME280;24244;51.950;5.902;2023-02-24T12:48:44;100499.91;;;6.66;87.47
38466;BME280;24244;51.950;5.902;2023-02-24T12:51:15;100491.81;;;6.68;87.63
38466;BME280;24244;51.950;5.902;2023-02-24T12:53:44;100485.72;;;6.67;87.64
38466;BME280;24244;51.950;5.902;2023-02-24T12:56:18;100487.34;;;6.68;87.80
38466;BME280;24244;51.950;5.902;2023-02-24T12:58:49;100485.38;;;6.71;87.83
38466;BME280;24244;51.950;5.902;2023-02-24T13:01:23;100487.69;;;6.74;87.81
38466;BME280;24244;51.950;5.902;2023-02-24T13:04:05;100478.59;;;6.76;87.72
38466;BME280;24244;51.950;5.902;2023-02-24T13:06:44;100476.28;;;6.81;87.49
38466;BME280;24244;51.950;5.902;2023-02-24T13:09:18;100477.59;;;6.85;87.70
38466;BME280;24244;51.950;5.902;2023-02-24T13:11:53;100458.41;;;6.91;87.64
38466;BME280;24244;51.950;5.902;2023-02-24T13:14:28;100454.25;;;6.97;87.89
38466;BME280;24244;51.950;5.902;2023-02-24T13:17:15;100448.31;;;7.03;87.50
38466;BME280;24244;51.950;5.902;2023-02-24T13:19:45;100439.84;;;7.07;87.58
38466;BME280;24244;51.950;5.902;2023-02-24T13:22:21;100433.06;;;7.13;87.65
38466;BME280;24244;51.950;5.902;2023-02-24T13:25:19;100422.44;;;7.21;87.60
38466;BME280;24244;51.950;5.902;2023-02-24T13:27:57;100412.84;;;7.28;87.59
38466;BME280;24244;51.950;5.902;2023-02-24T13:30:36;100413.94;;;7.34;87.42
38466;BME280;24244;51.950;5.902;2023-02-24T13:33:20;100403.50;;;7.40;87.49
38466;BME280;24244;51.950;5.902;2023-02-24T13:35:48;100407.25;;;7.46;87.54
38466;BME280;24244;51.950;5.902;2023-02-24T13:38:33;100392.72;;;7.50;87.45
38466;BME280;24244;51.950;5.902;2023-02-24T13:41:07;100395.66;;;7.55;87.50
38466;BME280;24244;51.950;5.902;2023-02-24T13:43:38;100392.66;;;7.58;87.63
38466;BME280;24244;51.950;5.902;2023-02-24T13:46:16;100399.06;;;7.64;87.47
38466;BME280;24244;51.950;5.902;2023-02-24T13:51:59;100389.44;;;7.71;87.71
38466;BME280;24244;51.950;5.902;2023-02-24T14:00:58;100381.44;;;7.79;87.83
38466;BME280;24244;51.950;5.902;2023-02-24T14:03:29;100375.97;;;7.80;87.64
38466;BME280;24244;51.950;5.902;2023-02-24T14:06:00;100364.19;;;7.83;87.77